createdAt,value
2023-02-14T00:02:25.822Z,2.52
2023-02-14T00:04:57.389Z,2.53
2023-02-14T00:07:25.828Z,2.58
2023-02-14T00:09:55.015Z,2.68
2023-02-14T00:12:23.727Z,2.60
2023-02-14T00:15:09.600Z,2.55
2023-02-14T00:17:38.549Z,2.62
2023-02-14T00:20:09.374Z,2.54
2023-02-14T00:22:39.230Z,2.37
2023-02-14T00:25:08.165Z,2.41
2023-02-14T00:27:36.898Z,2.51
2023-02-14T00:30:08.036Z,2.50
2023-02-14T00:32:39.663Z,2.39
2023-02-14T00:35:10.883Z,2.35
2023-02-14T00:37:42.540Z,2.43
2023-02-14T00:40:11.335Z,2.46
2023-02-14T00:42:42.280Z,2.47
2023-02-14T00:45:11.017Z,2.54
2023-02-14T00:47:40.182Z,2.58
2023-02-14T00:50:10.585Z,2.45
2023-02-14T00:52:40.516Z,2.47
2023-02-14T00:55:09.173Z,2.52
2023-02-14T00:57:37.921Z,2.44
2023-02-14T01:00:08.572Z,2.18
2023-02-14T01:02:38.267Z,2.14
2023-02-14T01:05:07.347Z,2.03
2023-02-14T01:07:39.362Z,2.10
2023-02-14T01:10:08.539Z,2.18
2023-02-14T01:12:37.424Z,2.15
2023-02-14T01:15:06.222Z,2.21
2023-02-14T01:17:35.378Z,2.22
2023-02-14T01:20:03.765Z,2.17
2023-02-14T01:22:37.470Z,2.20
2023-02-14T01:25:08.560Z,2.26
2023-02-14T01:27:37.018Z,2.24
2023-02-14T01:30:07.096Z,2.22
2023-02-14T01:32:36.562Z,2.21
2023-02-14T01:35:07.675Z,2.14
2023-02-14T01:37:36.520Z,2.15
2023-02-14T01:40:08.877Z,2.17
2023-02-14T01:42:38.169Z,2.19
2023-02-14T01:45:15.869Z,2.25
2023-02-14T01:47:47.695Z,2.24
2023-02-14T01:50:23.147Z,2.25
2023-02-14T01:52:56.094Z,2.28
2023-02-14T01:55:30.310Z,2.31
2023-02-14T01:58:03.318Z,2.20
2023-02-14T02:00:49.289Z,2.17
2023-02-14T02:03:20.860Z,2.15
2023-02-14T02:05:53.479Z,2.12
2023-02-14T02:08:24.054Z,2.15
2023-02-14T02:10:53.712Z,2.20
2023-02-14T02:13:23.534Z,2.20
2023-02-14T02:16:23.316Z,2.26
2023-02-14T02:19:05.710Z,2.27
2023-02-14T02:22:00.181Z,2.33
2023-02-14T02:24:34.984Z,2.22
2023-02-14T02:27:26.168Z,2.27
2023-02-14T02:30:42.749Z,2.28
2023-02-14T02:33:56.202Z,2.27
2023-02-14T02:36:46.742Z,2.25
2023-02-14T02:39:30.650Z,2.22
2023-02-14T02:42:07.819Z,2.26
2023-02-14T02:44:45.885Z,2.18
2023-02-14T02:47:23.454Z,2.21
2023-02-14T02:50:18.212Z,2.27
2023-02-14T02:53:04.517Z,2.28
2023-02-14T02:56:02.913Z,2.35
2023-02-14T02:58:38.276Z,2.31
2023-02-14T03:01:11.321Z,2.33
2023-02-14T03:04:00.613Z,2.29
2023-02-14T03:06:31.040Z,2.14
2023-02-14T03:09:11.946Z,1.82
2023-02-14T03:11:47.674Z,1.86
2023-02-14T03:14:23.645Z,1.92
2023-02-14T03:17:04.980Z,2.03
2023-02-14T03:20:14.778Z,2.03
2023-02-14T03:22:50.612Z,1.96
2023-02-14T03:25:38.214Z,2.09
2023-02-14T03:28:15.944Z,2.13
2023-02-14T03:30:59.813Z,2.16
2023-02-14T03:33:33.103Z,2.16
2023-02-14T03:36:07.862Z,2.18
2023-02-14T03:38:42.821Z,2.12
2023-02-14T03:41:18.565Z,2.13
2023-02-14T03:43:51.020Z,2.10
2023-02-14T03:46:26.615Z,2.12
2023-02-14T03:48:58.908Z,2.24
2023-02-14T03:51:34.756Z,2.26
2023-02-14T03:54:05.893Z,2.26
2023-02-14T03:56:41.516Z,2.24
2023-02-14T03:59:15.228Z,2.21
2023-02-14T04:01:50.599Z,2.27
2023-02-14T04:04:22.221Z,2.22
2023-02-14T04:06:50.834Z,2.16
2023-02-14T04:09:20.330Z,2.04
2023-02-14T04:11:50.900Z,1.93
2023-02-14T04:14:19.751Z,1.88
2023-02-14T04:17:05.830Z,1.81
2023-02-14T04:19:35.105Z,1.79
2023-02-14T04:22:03.390Z,1.92
2023-02-14T04:24:32.663Z,1.68
2023-02-14T04:27:11.660Z,1.76
2023-02-14T04:29:45.085Z,1.65
2023-02-14T04:32:16.069Z,1.77
2023-02-14T04:34:44.735Z,1.85
2023-02-14T04:37:14.597Z,1.67
2023-02-14T04:39:43.146Z,1.70
2023-02-14T04:42:14.172Z,1.81
2023-02-14T04:44:42.798Z,1.94
2023-02-14T04:47:11.573Z,1.97
2023-02-14T04:49:40.359Z,1.92
2023-02-14T04:52:08.718Z,1.93
2023-02-14T04:54:38.477Z,2.02
2023-02-14T04:57:06.817Z,2.06
2023-02-14T04:59:37.296Z,2.01
2023-02-14T05:02:05.660Z,1.93
2023-02-14T05:04:35.078Z,1.83
2023-02-14T05:07:03.380Z,1.71
2023-02-14T05:09:32.764Z,1.73
2023-02-14T05:12:01.050Z,1.72
2023-02-14T05:14:29.959Z,1.59
2023-02-14T05:17:00.476Z,1.46
2023-02-14T05:19:28.814Z,1.58
2023-02-14T05:21:57.739Z,1.58
2023-02-14T05:24:26.124Z,1.49
2023-02-14T05:26:55.445Z,1.62
2023-02-14T05:29:24.142Z,1.67
2023-02-14T05:31:52.581Z,1.69
2023-02-14T05:34:22.791Z,1.70
2023-02-14T05:36:51.174Z,1.77
2023-02-14T05:39:20.386Z,1.78
2023-02-14T05:41:49.253Z,1.72
2023-02-14T05:44:17.488Z,1.60
2023-02-14T05:46:46.222Z,1.52
2023-02-14T05:49:14.489Z,1.29
2023-02-14T05:51:44.695Z,1.36
2023-02-14T05:54:13.986Z,1.37
2023-02-14T05:56:42.334Z,1.48
2023-02-14T05:59:11.377Z,1.31
2023-02-14T06:01:39.684Z,1.61
2023-02-14T06:04:08.922Z,1.63
2023-02-14T06:06:37.216Z,1.69
2023-02-14T06:09:07.724Z,1.48
2023-02-14T06:11:36.065Z,1.42
2023-02-14T06:14:05.594Z,1.42
2023-02-14T06:16:34.345Z,1.50
2023-02-14T06:19:03.042Z,1.39
2023-02-14T06:21:32.198Z,1.37
2023-02-14T06:24:00.522Z,1.27
2023-02-14T06:26:30.901Z,1.22
2023-02-14T06:29:00.266Z,1.19
2023-02-14T06:31:28.863Z,1.35
2023-02-14T06:33:58.068Z,1.35
2023-02-14T06:36:27.302Z,1.27
2023-02-14T06:38:55.687Z,1.41
2023-02-14T06:41:24.046Z,1.46
2023-02-14T06:43:54.170Z,1.54
2023-02-14T06:46:22.953Z,1.56
2023-02-14T06:48:51.304Z,1.53
2023-02-14T06:51:19.785Z,1.41
2023-02-14T06:53:48.583Z,1.34
2023-02-14T06:56:16.891Z,1.40
2023-02-14T06:58:45.537Z,1.47
2023-02-14T07:01:15.223Z,1.49
2023-02-14T07:03:44.226Z,1.35
2023-02-14T07:06:13.000Z,1.25
2023-02-14T07:08:42.317Z,1.31
2023-02-14T07:11:10.680Z,1.38
2023-02-14T07:13:39.041Z,1.43
2023-02-14T07:16:07.791Z,1.43
2023-02-14T07:18:38.165Z,1.58
2023-02-14T07:21:07.325Z,1.40
2023-02-14T07:23:36.057Z,1.37
2023-02-14T07:26:05.062Z,1.25
2023-02-14T07:28:34.102Z,1.04
2023-02-14T07:31:04.036Z,1.03
2023-02-14T07:33:32.585Z,1.02
2023-02-14T07:36:05.877Z,1.29
2023-02-14T07:38:34.347Z,1.38
2023-02-14T07:41:03.539Z,1.41
2023-02-14T07:43:34.388Z,1.45
2023-02-14T07:46:03.421Z,1.50
2023-02-14T07:48:34.346Z,1.43
2023-02-14T07:51:04.187Z,1.28
2023-02-14T07:53:33.418Z,1.14
2023-02-14T07:56:02.309Z,0.98
2023-02-14T07:58:30.610Z,0.99
2023-02-14T08:00:59.812Z,1.15
2023-02-14T08:03:28.372Z,1.21
2023-02-14T08:05:58.604Z,1.22
2023-02-14T08:08:30.504Z,1.01
2023-02-14T08:11:00.170Z,1.00
2023-02-14T08:13:28.661Z,1.08
2023-02-14T08:16:07.850Z,1.07
2023-02-14T08:18:40.068Z,1.10
2023-02-14T08:21:11.236Z,1.04
2023-02-14T08:23:40.984Z,1.12
2023-02-14T08:26:09.434Z,1.24
2023-02-14T08:28:38.250Z,1.34
2023-02-14T08:31:06.967Z,1.38
2023-02-14T08:33:35.735Z,1.55
2023-02-14T08:36:04.993Z,1.61
2023-02-14T08:38:33.787Z,1.54
2023-02-14T08:41:07.602Z,1.51
2023-02-14T08:43:37.148Z,1.59
2023-02-14T08:46:05.791Z,1.68
2023-02-14T08:48:39.060Z,1.69
2023-02-14T08:51:09.013Z,1.69
2023-02-14T08:53:37.961Z,1.73
2023-02-14T08:56:10.543Z,1.78
2023-02-14T08:58:40.013Z,1.81
2023-02-14T09:01:10.527Z,1.85
2023-02-14T09:03:39.211Z,1.92
2023-02-14T09:06:09.797Z,1.99
2023-02-14T09:08:40.626Z,1.88
2023-02-14T09:11:11.768Z,1.96
2023-02-14T09:13:40.602Z,2.00
2023-02-14T09:16:12.196Z,2.07
2023-02-14T09:18:41.727Z,1.91
2023-02-14T09:21:11.958Z,2.02
2023-02-14T09:23:41.127Z,1.84
2023-02-14T09:26:13.479Z,1.61
2023-02-14T09:28:42.550Z,1.73
2023-02-14T09:31:12.971Z,1.68
2023-02-14T09:33:42.372Z,1.77
2023-02-14T09:36:28.971Z,1.81
2023-02-14T09:38:57.272Z,1.80
2023-02-14T09:41:50.815Z,1.86
2023-02-14T09:44:28.783Z,1.93
2023-02-14T09:47:06.196Z,2.10
2023-02-14T09:49:41.912Z,2.08
2023-02-14T09:52:16.329Z,1.99
2023-02-14T09:54:49.994Z,2.06
2023-02-14T09:57:27.840Z,2.14
2023-02-14T10:00:02.201Z,2.14
2023-02-14T10:02:44.779Z,2.21
2023-02-14T10:05:17.056Z,2.26
2023-02-14T10:07:56.804Z,2.36
2023-02-14T10:10:31.228Z,2.41
2023-02-14T10:13:08.670Z,2.39
2023-02-14T10:15:40.993Z,2.53
2023-02-14T10:18:14.755Z,2.56
2023-02-14T10:20:45.725Z,2.62
2023-02-14T10:23:28.414Z,2.72
2023-02-14T10:26:02.365Z,2.79
2023-02-14T10:28:38.493Z,2.90
2023-02-14T10:31:20.402Z,2.88
2023-02-14T10:33:57.402Z,2.72
2023-02-14T10:36:45.212Z,2.51
2023-02-14T10:39:34.838Z,2.36
2023-02-14T10:42:12.735Z,2.49
2023-02-14T10:44:49.205Z,2.62
2023-02-14T10:47:31.121Z,2.43
2023-02-14T10:50:12.567Z,2.47
2023-02-14T10:52:47.117Z,2.27
2023-02-14T10:55:32.019Z,2.55
2023-02-14T10:58:05.066Z,2.71
2023-02-14T11:00:38.952Z,2.84
2023-02-14T11:03:10.757Z,2.83
2023-02-14T11:05:46.164Z,2.97
2023-02-14T11:08:17.152Z,2.93
2023-02-14T11:10:46.562Z,2.96
2023-02-14T11:13:37.414Z,3.08
2023-02-14T11:16:09.692Z,3.10
2023-02-14T11:18:41.717Z,3.23
2023-02-14T11:21:12.042Z,3.34
2023-02-14T11:23:43.041Z,3.34
2023-02-14T11:26:18.449Z,3.30
2023-02-14T11:28:55.073Z,3.35
2023-02-14T11:31:30.200Z,3.20
2023-02-14T11:34:00.326Z,3.41
2023-02-14T11:36:30.605Z,3.45
2023-02-14T11:39:06.853Z,3.30
2023-02-14T11:41:49.750Z,3.29
2023-02-14T11:44:23.481Z,3.34
2023-02-14T11:46:54.590Z,3.38
2023-02-14T11:49:29.586Z,3.43
2023-02-14T11:51:59.897Z,3.55
2023-02-14T11:54:33.264Z,3.70
2023-02-14T11:57:08.460Z,3.71
2023-02-14T11:59:43.349Z,3.77
2023-02-14T12:02:26.015Z,3.76
2023-02-14T12:04:57.940Z,3.74
2023-02-14T12:07:30.900Z,3.69
2023-02-14T12:10:20.742Z,3.84
2023-02-14T12:13:02.209Z,3.92
2023-02-14T12:15:37.976Z,3.96
2023-02-14T12:18:48.065Z,3.97
2023-02-14T12:21:28.520Z,3.99
2023-02-14T12:24:04.348Z,4.04
2023-02-14T12:26:36.603Z,4.12
2023-02-14T12:29:15.087Z,4.19
2023-02-14T12:31:44.607Z,4.23
2023-02-14T12:34:17.810Z,4.17
2023-02-14T12:37:11.296Z,4.17
2023-02-14T12:39:49.313Z,4.20
2023-02-14T12:42:34.781Z,4.22
2023-02-14T12:45:12.088Z,4.18
2023-02-14T12:47:49.724Z,3.95
2023-02-14T12:50:38.438Z,3.97
2023-02-14T12:53:30.448Z,3.98
2023-02-14T12:56:08.223Z,4.08
2023-02-14T12:58:45.702Z,4.10
2023-02-14T13:01:38.956Z,4.11
2023-02-14T13:04:28.353Z,4.14
2023-02-14T13:07:04.750Z,3.86
2023-02-14T13:09:42.039Z,3.66
2023-02-14T13:12:25.452Z,3.75
2023-02-14T13:15:03.135Z,3.80
2023-02-14T13:17:38.419Z,3.81
2023-02-14T13:20:25.889Z,3.86
2023-02-14T13:22:57.402Z,3.66
2023-02-14T13:25:31.765Z,3.54
2023-02-14T13:28:03.986Z,3.46
2023-02-14T13:30:34.867Z,3.44
2023-02-14T13:33:08.846Z,3.34
2023-02-14T13:35:37.982Z,3.33
2023-02-14T13:38:15.188Z,3.23
2023-02-14T13:40:47.214Z,3.18
2023-02-14T13:43:49.035Z,3.12
2023-02-14T13:46:20.972Z,2.99
2023-02-14T13:49:04.461Z,2.92
2023-02-14T13:51:48.656Z,2.95
2023-02-14T13:54:32.723Z,2.93
2023-02-14T13:57:05.425Z,2.92
2023-02-14T13:59:35.827Z,2.88
2023-02-14T14:02:32.930Z,2.85
2023-02-14T14:05:02.702Z,2.80
2023-02-14T14:07:31.352Z,2.76
2023-02-14T14:10:03.552Z,2.93
2023-02-14T14:12:39.805Z,2.95
2023-02-14T14:15:14.379Z,3.12
2023-02-14T14:17:45.998Z,3.09
2023-02-14T14:20:39.529Z,3.10
2023-02-14T14:23:31.980Z,3.24
2023-02-14T14:26:03.623Z,3.39
2023-02-14T14:28:34.067Z,3.51
2023-02-14T14:31:03.578Z,3.55
2023-02-14T14:33:33.976Z,3.53
2023-02-14T14:36:08.251Z,3.49
2023-02-14T14:38:48.006Z,3.59
2023-02-14T14:41:18.675Z,3.54
2023-02-14T14:43:48.295Z,3.45
2023-02-14T14:46:18.551Z,3.49
2023-02-14T14:48:50.092Z,3.45
2023-02-14T14:51:25.169Z,3.37
2023-02-14T14:53:57.066Z,3.27
2023-02-14T14:56:29.968Z,3.28
2023-02-14T14:58:58.974Z,3.41
2023-02-14T15:01:34.555Z,3.48
2023-02-14T15:04:13.368Z,3.48
2023-02-14T15:06:42.528Z,3.40
2023-02-14T15:09:16.656Z,3.36
2023-02-14T15:12:05.291Z,3.35
2023-02-14T15:14:36.752Z,3.45
2023-02-14T15:17:07.501Z,3.54
2023-02-14T15:19:41.721Z,3.55
2023-02-14T15:22:21.642Z,3.53
2023-02-14T15:24:51.015Z,3.53
2023-02-14T15:27:23.582Z,3.44
2023-02-14T15:29:59.004Z,3.28
2023-02-14T15:32:31.728Z,3.19
2023-02-14T15:35:02.265Z,3.16
2023-02-14T15:37:31.391Z,3.02
2023-02-14T15:40:00.874Z,2.84
2023-02-14T15:42:32.972Z,2.81
2023-02-14T15:45:18.677Z,3.02
2023-02-14T15:47:51.671Z,2.92
2023-02-14T15:50:24.248Z,2.97
2023-02-14T15:52:56.273Z,3.10
2023-02-14T15:55:28.906Z,3.17
2023-02-14T15:58:02.045Z,3.14
2023-02-14T16:00:31.704Z,3.08
2023-02-14T16:03:03.759Z,2.98
2023-02-14T16:05:32.233Z,2.87
2023-02-14T16:08:03.965Z,2.82
2023-02-14T16:10:34.502Z,2.79
2023-02-14T16:13:06.800Z,2.72
2023-02-14T16:15:36.616Z,2.74
2023-02-14T16:18:17.429Z,2.75
2023-02-14T16:20:47.029Z,2.84
2023-02-14T16:23:21.153Z,2.82
2023-02-14T16:25:50.445Z,2.82
2023-02-14T16:28:21.771Z,2.68
2023-02-14T16:30:56.414Z,2.53
2023-02-14T16:33:27.570Z,2.52
2023-02-14T16:36:02.590Z,2.50
2023-02-14T16:38:30.983Z,2.47
2023-02-14T16:40:59.799Z,2.51
2023-02-14T16:43:29.750Z,2.52
2023-02-14T16:45:59.092Z,2.61
2023-02-14T16:48:27.436Z,2.63
2023-02-14T16:50:57.226Z,2.68
2023-02-14T16:53:28.743Z,2.63
2023-02-14T16:55:58.504Z,2.55
2023-02-14T16:58:34.606Z,2.54
2023-02-14T17:01:04.512Z,2.48
2023-02-14T17:03:32.857Z,2.53
2023-02-14T17:06:03.249Z,2.57
2023-02-14T17:08:32.305Z,2.56
2023-02-14T17:11:02.836Z,2.56
2023-02-14T17:13:37.770Z,2.55
2023-02-14T17:16:10.101Z,2.51
2023-02-14T17:18:40.674Z,2.59
2023-02-14T17:21:09.533Z,2.62
2023-02-14T17:23:37.836Z,2.53
2023-02-14T17:26:07.072Z,2.47
2023-02-14T17:28:37.226Z,2.58
2023-02-14T17:31:06.004Z,2.60
2023-02-14T17:33:36.232Z,2.60
2023-02-14T17:36:06.649Z,2.53
2023-02-14T17:38:36.385Z,2.55
2023-02-14T17:41:12.733Z,2.47
2023-02-14T17:43:43.041Z,2.46
2023-02-14T17:46:12.584Z,2.42
2023-02-14T17:48:41.524Z,2.39
2023-02-14T17:51:11.805Z,2.49
2023-02-14T17:53:41.547Z,2.48
2023-02-14T17:56:12.020Z,2.51
2023-02-14T17:58:41.071Z,2.48
2023-02-14T18:01:12.742Z,2.44
2023-02-14T18:03:43.119Z,2.43
2023-02-14T18:06:12.082Z,2.45
2023-02-14T18:08:43.108Z,2.45
2023-02-14T18:11:13.989Z,2.50
2023-02-14T18:13:44.826Z,2.46
2023-02-14T18:16:16.306Z,2.45
2023-02-14T18:18:45.869Z,2.45
2023-02-14T18:21:17.508Z,2.39
2023-02-14T18:23:46.089Z,2.38
2023-02-14T18:26:16.533Z,2.43
2023-02-14T18:28:45.483Z,2.42
2023-02-14T18:31:17.108Z,2.39
2023-02-14T18:33:46.589Z,2.30
2023-02-14T18:36:16.770Z,2.24
2023-02-14T18:38:47.407Z,2.28
2023-02-14T18:41:17.755Z,2.43
2023-02-14T18:43:47.091Z,2.46
2023-02-14T18:46:19.234Z,2.44
2023-02-14T18:48:48.227Z,2.35
2023-02-14T18:51:19.580Z,2.36
2023-02-14T18:53:52.173Z,2.35
2023-02-14T18:56:23.560Z,2.41
2023-02-14T18:58:56.240Z,2.40
2023-02-14T19:01:29.212Z,2.43
2023-02-14T19:04:01.055Z,2.35
2023-02-14T19:06:32.000Z,2.26
2023-02-14T19:09:01.427Z,2.31
2023-02-14T19:11:32.690Z,2.39
2023-02-14T19:14:03.294Z,2.42
2023-02-14T19:16:37.161Z,2.45
2023-02-14T19:19:06.739Z,2.26
2023-02-14T19:21:36.712Z,2.24
2023-02-14T19:24:07.920Z,2.16
2023-02-14T19:26:40.098Z,2.09
2023-02-14T19:29:11.693Z,2.14
2023-02-14T19:31:45.152Z,2.13
2023-02-14T19:34:20.358Z,2.14
2023-02-14T19:36:50.269Z,2.11
2023-02-14T19:39:20.625Z,2.11
2023-02-14T19:41:48.958Z,2.20
2023-02-14T19:44:19.258Z,2.14
2023-02-14T19:46:48.898Z,2.14
2023-02-14T19:49:19.690Z,2.19
2023-02-14T19:51:51.144Z,2.13
2023-02-14T19:54:21.903Z,2.04
2023-02-14T19:56:50.410Z,1.94
2023-02-14T19:59:22.945Z,2.00
2023-02-14T20:01:54.117Z,1.93
2023-02-14T20:04:25.444Z,1.73
2023-02-14T20:06:54.255Z,1.71
2023-02-14T20:09:24.495Z,1.65
2023-02-14T20:11:54.702Z,1.68
2023-02-14T20:14:25.932Z,1.68
2023-02-14T20:16:57.635Z,1.67
2023-02-14T20:19:29.731Z,1.73
2023-02-14T20:21:58.461Z,1.79
2023-02-14T20:24:28.889Z,1.81
2023-02-14T20:26:58.465Z,1.75
2023-02-14T20:29:27.447Z,1.67
2023-02-14T20:32:00.394Z,1.65
2023-02-14T20:34:29.287Z,1.56
2023-02-14T20:36:59.623Z,1.53
2023-02-14T20:39:30.465Z,1.59
2023-02-14T20:41:59.924Z,1.55
2023-02-14T20:44:28.852Z,1.53
2023-02-14T20:47:00.065Z,1.56
2023-02-14T20:49:30.647Z,1.55
2023-02-14T20:52:00.124Z,1.64
2023-02-14T20:54:30.090Z,1.68
2023-02-14T20:56:59.421Z,1.66
2023-02-14T20:59:29.223Z,1.71
2023-02-14T21:02:00.222Z,1.71
2023-02-14T21:04:30.610Z,1.77
2023-02-14T21:07:00.353Z,1.72
2023-02-14T21:09:29.408Z,1.67
2023-02-14T21:11:58.398Z,1.61
2023-02-14T21:14:28.103Z,1.55
2023-02-14T21:16:56.508Z,1.53
2023-02-14T21:19:29.974Z,1.63
2023-02-14T21:21:58.925Z,1.51
2023-02-14T21:24:27.732Z,1.56
2023-02-14T21:26:56.064Z,1.43
2023-02-14T21:29:25.321Z,1.41
2023-02-14T21:31:54.173Z,1.52
2023-02-14T21:34:22.708Z,1.53
2023-02-14T21:36:56.539Z,1.40
2023-02-14T21:39:27.517Z,1.44
2023-02-14T21:41:56.388Z,1.43
2023-02-14T21:44:38.654Z,1.34
2023-02-14T21:47:08.152Z,1.37
2023-02-14T21:49:53.933Z,1.32
2023-02-14T21:52:24.650Z,1.32
2023-02-14T21:54:53.399Z,1.36
2023-02-14T21:57:21.687Z,1.41
2023-02-14T21:59:50.823Z,1.29
2023-02-14T22:02:19.142Z,1.37
2023-02-14T22:04:47.913Z,1.45
2023-02-14T22:07:16.734Z,1.22
2023-02-14T22:09:46.377Z,1.23
2023-02-14T22:12:15.365Z,1.11
2023-02-14T22:14:44.190Z,0.89
2023-02-14T22:17:13.155Z,0.82
2023-02-14T22:19:41.456Z,0.91
2023-02-14T22:22:10.722Z,1.06
2023-02-14T22:24:39.389Z,1.08
2023-02-14T22:27:09.049Z,1.13
2023-02-14T22:29:38.596Z,1.08
2023-02-14T22:32:07.039Z,1.03
2023-02-14T22:34:36.201Z,0.81
2023-02-14T22:37:05.057Z,0.85
2023-02-14T22:39:33.534Z,0.63
2023-02-14T22:42:06.730Z,0.50
2023-02-14T22:44:36.566Z,0.65
2023-02-14T22:47:04.915Z,0.73
2023-02-14T22:49:33.948Z,0.80
2023-02-14T22:52:02.231Z,0.82
2023-02-14T22:54:31.290Z,0.81
2023-02-14T22:57:00.107Z,0.91
2023-02-14T22:59:31.674Z,0.95
2023-02-14T23:02:02.300Z,0.99
2023-02-14T23:04:31.668Z,0.96
2023-02-14T23:06:59.956Z,1.00
2023-02-14T23:09:29.451Z,1.02
2023-02-14T23:11:57.809Z,1.07
2023-02-14T23:14:44.875Z,1.06
2023-02-14T23:17:34.041Z,1.00
2023-02-14T23:20:20.532Z,0.99
2023-02-14T23:22:48.942Z,1.01
2023-02-14T23:25:18.225Z,0.97
2023-02-14T23:27:47.499Z,0.99
2023-02-14T23:30:19.559Z,0.99
2023-02-14T23:32:49.666Z,0.98
2023-02-14T23:35:18.221Z,1.02
2023-02-14T23:37:47.716Z,1.01
2023-02-14T23:40:16.045Z,0.92
2023-02-14T23:42:45.194Z,0.89
2023-02-14T23:45:31.691Z,0.88
2023-02-14T23:48:05.051Z,0.91
2023-02-14T23:50:35.025Z,0.92
2023-02-14T23:53:03.386Z,0.88
2023-02-14T23:55:32.657Z,0.67
2023-02-14T23:58:01.428Z,0.63
